Time;durP1;ratioP1;P1;durP2;ratioP2;P2;SDS_P1;SDS_P2;PMS_P1;PMS_P2;Temp;Humidity;BMP_temperature;BMP_pressure;BME280_temperature;BME280_humidity;BME280_pressure;Samples;Min_cycle;Max_cycle;Signal;HPM_P1;HPM_P2
2020/12/06 00:00:25;;;;;;;34.95;20.77;;;;;;;;;;5034063;28;20359;-57
2020/12/06 00:02:52;;;;;;;36.17;20.25;;;;;;;;;;5033682;28;20025;-56
2020/12/06 00:05:19;;;;;;;35.25;20.58;;;;;;;;;;5038670;28;20017;-56
2020/12/06 00:07:45;;;;;;;36.20;20.85;;;;;;;;;;5041459;28;20045;-55
2020/12/06 00:10:17;;;;;;;34.28;19.92;;;;;;;;;;5034362;28;20032;-56
2020/12/06 00:12:44;;;;;;;33.95;18.83;;;;;;;;;;5033322;28;20121;-55
2020/12/06 00:15:11;;;;;;;32.20;19.23;;;;;;;;;;5032897;28;20030;-54
2020/12/06 00:17:37;;;;;;;34.72;19.67;;;;;;;;;;5033328;28;20078;-55
2020/12/06 00:20:09;;;;;;;34.53;20.05;;;;;;;;;;5033238;28;20033;-56
2020/12/06 00:22:35;;;;;;;35.07;19.63;;;;;;;;;;5033553;28;20492;-56
2020/12/06 00:25:01;;;;;;;32.38;18.38;;;;;;;;;;5033405;28;20297;-56
2020/12/06 00:27:27;;;;;;;29.33;16.45;;;;;;;;;;5033372;28;20017;-56
2020/12/06 00:29:53;;;;;;;28.77;15.93;;;;;;;;;;5033331;28;20029;-56
2020/12/06 00:32:19;;;;;;;28.52;16.50;;;;;;;;;;5033276;28;20028;-57
2020/12/06 00:34:45;;;;;;;24.70;15.20;;;;;;;;;;5033400;28;20044;-57
2020/12/06 00:37:11;;;;;;;27.15;15.80;;;;;;;;;;5032811;28;20148;-56
2020/12/06 00:39:38;;;;;;;26.60;15.63;;;;;;;;;;5033036;28;20033;-56
2020/12/06 00:42:04;;;;;;;27.95;16.70;;;;;;;;;;5032888;28;20017;-57
2020/12/06 00:44:30;;;;;;;26.95;16.08;;;;;;;;;;5033294;28;20052;-56
2020/12/06 00:46:58;;;;;;;27.40;16.30;;;;;;;;;;5033184;28;20025;-56
2020/12/06 00:49:24;;;;;;;28.75;17.25;;;;;;;;;;5033026;28;20428;-56
2020/12/06 00:51:50;;;;;;;28.38;16.50;;;;;;;;;;5032115;28;20457;-53
2020/12/06 00:54:16;;;;;;;31.80;17.27;;;;;;;;;;5032236;28;20064;-54
2020/12/06 00:56:42;;;;;;;27.13;16.02;;;;;;;;;;5033030;28;20031;-55
2020/12/06 00:59:08;;;;;;;28.17;16.17;;;;;;;;;;5032585;28;20108;-55
2020/12/06 01:01:39;;;;;;;29.08;17.40;;;;;;;;;;5032834;28;20056;-55
2020/12/06 01:04:05;;;;;;;28.02;15.77;;;;;;;;;;5032529;28;20065;-54
2020/12/06 01:06:31;;;;;;;23.60;15.43;;;;;;;;;;5032768;28;20030;-55
2020/12/06 01:08:57;;;;;;;26.20;15.38;;;;;;;;;;5032868;28;20033;-56
2020/12/06 01:11:23;;;;;;;23.75;14.88;;;;;;;;;;5032530;28;20030;-56
2020/12/06 01:13:49;;;;;;;22.80;13.75;;;;;;;;;;5038648;28;20037;-56
2020/12/06 01:16:15;;;;;;;22.30;14.00;;;;;;;;;;5032665;28;20057;-56
2020/12/06 01:18:41;;;;;;;26.35;14.73;;;;;;;;;;5032606;28;20033;-56
2020/12/06 01:21:10;;;;;;;27.67;15.07;;;;;;;;;;5032559;28;20022;-57
2020/12/06 01:23:36;;;;;;;24.80;14.02;;;;;;;;;;5032637;28;20040;-57
2020/12/06 01:26:02;;;;;;;23.33;14.52;;;;;;;;;;5032552;28;20025;-56
2020/12/06 01:28:28;;;;;;;26.33;14.80;;;;;;;;;;5032253;28;20095;-57
2020/12/06 01:30:54;;;;;;;23.35;14.23;;;;;;;;;;5032519;28;20029;-57
2020/12/06 01:33:20;;;;;;;20.88;13.05;;;;;;;;;;5045295;28;20028;-57
2020/12/06 01:35:46;;;;;;;21.35;13.02;;;;;;;;;;5032463;28;20036;-58
2020/12/06 01:38:12;;;;;;;18.70;12.32;;;;;;;;;;5032461;28;20036;-57
2020/12/06 01:40:41;;;;;;;18.75;12.13;;;;;;;;;;5032002;28;20026;-58
2020/12/06 01:43:08;;;;;;;22.75;12.07;;;;;;;;;;5031874;28;20036;-56
2020/12/06 01:45:34;;;;;;;17.17;10.95;;;;;;;;;;5031882;28;20096;-58
2020/12/06 01:48:01;;;;;;;17.55;10.90;;;;;;;;;;5031881;28;20531;-55
2020/12/06 01:50:27;;;;;;;17.42;10.15;;;;;;;;;;5030694;28;20404;-54
2020/12/06 01:52:53;;;;;;;16.10;9.40;;;;;;;;;;5032635;28;20029;-52
2020/12/06 01:55:19;;;;;;;17.50;8.95;;;;;;;;;;5030332;28;20126;-54
2020/12/06 01:57:45;;;;;;;15.38;9.10;;;;;;;;;;5030638;28;20053;-57
2020/12/06 02:00:11;;;;;;;14.65;9.23;;;;;;;;;;5030924;28;20056;-53
2020/12/06 02:02:37;;;;;;;15.60;9.82;;;;;;;;;;5030972;28;20052;-53
2020/12/06 02:05:04;;;;;;;14.30;9.30;;;;;;;;;;5030590;28;20037;-54
2020/12/06 02:07:32;;;;;;;18.58;10.80;;;;;;;;;;5030909;28;20075;-54
2020/12/06 02:09:58;;;;;;;17.23;10.05;;;;;;;;;;5030866;28;20034;-56
2020/12/06 02:12:24;;;;;;;20.98;11.45;;;;;;;;;;5035487;28;20100;-57
2020/12/06 02:14:50;;;;;;;17.63;10.80;;;;;;;;;;5030963;28;20073;-55
2020/12/06 02:17:16;;;;;;;16.95;10.55;;;;;;;;;;5030842;28;20018;-57
2020/12/06 02:19:42;;;;;;;16.58;10.13;;;;;;;;;;5030572;28;20029;-58
2020/12/06 02:22:08;;;;;;;17.85;10.70;;;;;;;;;;5037850;28;20041;-56
2020/12/06 02:24:34;;;;;;;21.42;11.50;;;;;;;;;;5030552;28;20029;-56
2020/12/06 02:27:00;;;;;;;18.38;11.68;;;;;;;;;;5030335;28;20720;-55
2020/12/06 02:29:26;;;;;;;20.42;12.57;;;;;;;;;;5030646;28;20345;-58
2020/12/06 02:31:52;;;;;;;22.10;13.02;;;;;;;;;;5030956;28;20038;-56
2020/12/06 02:34:19;;;;;;;22.75;12.88;;;;;;;;;;5031343;28;20025;-57
2020/12/06 02:36:45;;;;;;;23.33;13.43;;;;;;;;;;5036900;28;20018;-58
2020/12/06 02:39:12;;;;;;;21.48;13.18;;;;;;;;;;5031452;28;20025;-57
2020/12/06 02:41:42;;;;;;;24.85;13.40;;;;;;;;;;5033797;28;20112;-54
2020/12/06 02:44:09;;;;;;;22.90;13.55;;;;;;;;;;5031301;28;20029;-54
2020/12/06 02:46:35;;;;;;;20.10;12.90;;;;;;;;;;5030371;28;20455;-56
2020/12/06 02:49:01;;;;;;;22.73;12.60;;;;;;;;;;5030965;28;20372;-56
2020/12/06 02:51:27;;;;;;;18.95;11.98;;;;;;;;;;5031196;28;20029;-55
2020/12/06 02:53:53;;;;;;;21.08;12.02;;;;;;;;;;5034370;28;20107;-55
2020/12/06 02:56:19;;;;;;;20.73;12.23;;;;;;;;;;5031328;28;20075;-56
2020/12/06 02:58:45;;;;;;;19.23;12.02;;;;;;;;;;5031331;28;20029;-57
2020/12/06 03:01:12;;;;;;;19.00;11.40;;;;;;;;;;5032457;28;20029;-57
2020/12/06 03:03:38;;;;;;;18.83;11.35;;;;;;;;;;5034768;28;20016;-54
2020/12/06 03:06:05;;;;;;;18.83;11.45;;;;;;;;;;5035007;28;20025;-57
2020/12/06 03:08:31;;;;;;;22.00;11.80;;;;;;;;;;5035348;28;20029;-58
2020/12/06 03:10:57;;;;;;;20.95;11.43;;;;;;;;;;5043234;28;20025;-57
2020/12/06 03:13:23;;;;;;;21.60;12.23;;;;;;;;;;5034829;28;20033;-58
2020/12/06 03:15:49;;;;;;;21.80;12.52;;;;;;;;;;5034838;28;20025;-58
2020/12/06 03:18:15;;;;;;;22.15;12.65;;;;;;;;;;5034802;28;20026;-57
2020/12/06 03:20:41;;;;;;;22.90;13.43;;;;;;;;;;5034545;28;20148;-57
2020/12/06 03:23:07;;;;;;;20.48;12.68;;;;;;;;;;5034571;28;20029;-58
2020/12/06 03:25:33;;;;;;;24.85;13.80;;;;;;;;;;5034638;28;20496;-58
2020/12/06 03:27:59;;;;;;;26.83;13.95;;;;;;;;;;5034511;28;20095;-58
2020/12/06 03:30:25;;;;;;;21.92;13.65;;;;;;;;;;5034455;28;20369;-57
2020/12/06 03:32:51;;;;;;;25.40;14.25;;;;;;;;;;5034507;28;20032;-58
2020/12/06 03:35:17;;;;;;;23.13;13.77;;;;;;;;;;5034223;28;20087;-57
2020/12/06 03:37:43;;;;;;;25.38;14.73;;;;;;;;;;5034421;28;20368;-58
2020/12/06 03:40:09;;;;;;;26.65;13.68;;;;;;;;;;5035585;28;20431;-58
2020/12/06 03:42:35;;;;;;;23.38;14.02;;;;;;;;;;5034118;28;20026;-57
2020/12/06 03:45:02;;;;;;;24.67;13.88;;;;;;;;;;5034310;28;20025;-58
2020/12/06 03:47:28;;;;;;;23.17;14.30;;;;;;;;;;5034305;28;20023;-57
2020/12/06 03:49:54;;;;;;;24.35;13.55;;;;;;;;;;5034103;28;20100;-57
2020/12/06 03:52:20;;;;;;;20.95;13.02;;;;;;;;;;5045822;28;20057;-58
2020/12/06 03:54:46;;;;;;;20.85;12.95;;;;;;;;;;5053921;28;20488;-58
2020/12/06 03:57:12;;;;;;;22.55;12.57;;;;;;;;;;5054167;28;20480;-57
2020/12/06 03:59:38;;;;;;;22.15;12.98;;;;;;;;;;5054033;28;20021;-58
2020/12/06 04:02:04;;;;;;;22.95;13.32;;;;;;;;;;5047452;28;20033;-58
2020/12/06 04:04:30;;;;;;;22.77;12.93;;;;;;;;;;5054073;28;20162;-57
2020/12/06 04:06:56;;;;;;;22.67;13.52;;;;;;;;;;5053975;28;20404;-58
2020/12/06 04:09:22;;;;;;;21.50;13.55;;;;;;;;;;5054036;28;20492;-57
2020/12/06 04:11:48;;;;;;;22.35;13.63;;;;;;;;;;5053973;28;20520;-58
2020/12/06 04:14:14;;;;;;;22.80;13.38;;;;;;;;;;5053633;28;20388;-57
2020/12/06 04:16:40;;;;;;;24.30;13.90;;;;;;;;;;5053794;28;20028;-58
2020/12/06 04:19:06;;;;;;;24.88;14.23;;;;;;;;;;5053831;28;20032;-57
2020/12/06 04:21:32;;;;;;;26.92;15.20;;;;;;;;;;5053795;28;20492;-58
2020/12/06 04:23:58;;;;;;;27.38;14.45;;;;;;;;;;5053685;28;20052;-56
2020/12/06 04:26:24;;;;;;;27.67;15.18;;;;;;;;;;5053739;28;20025;-58
2020/12/06 04:28:50;;;;;;;29.20;14.95;;;;;;;;;;5053485;28;20025;-58
2020/12/06 04:31:16;;;;;;;22.33;13.00;;;;;;;;;;5046222;28;20033;-58
2020/12/06 04:33:42;;;;;;;19.95;12.30;;;;;;;;;;5049424;28;20052;-58
2020/12/06 04:36:08;;;;;;;21.08;12.93;;;;;;;;;;5053733;28;20361;-58
2020/12/06 04:38:34;;;;;;;22.40;13.70;;;;;;;;;;5053351;28;20024;-58
2020/12/06 04:41:00;;;;;;;23.08;12.48;;;;;;;;;;5053698;28;20105;-57
2020/12/06 04:43:28;;;;;;;20.08;12.68;;;;;;;;;;5053437;28;20021;-57
2020/12/06 04:45:54;;;;;;;22.15;12.95;;;;;;;;;;5053313;28;20035;-57
2020/12/06 04:48:26;;;;;;;25.20;14.65;;;;;;;;;;5053398;28;20040;-58
2020/12/06 04:50:54;;;;;;;22.58;12.95;;;;;;;;;;5048729;28;20037;-58
2020/12/06 04:53:21;;;;;;;20.58;12.60;;;;;;;;;;5052695;28;20055;-57
2020/12/06 04:55:49;;;;;;;21.77;13.00;;;;;;;;;;5053360;28;20056;-57
2020/12/06 04:58:18;;;;;;;21.08;13.07;;;;;;;;;;5043388;28;20107;-57
2020/12/06 05:00:45;;;;;;;21.88;12.68;;;;;;;;;;5053206;28;20020;-56
2020/12/06 05:03:12;;;;;;;22.67;13.13;;;;;;;;;;5053018;28;21715;-58
2020/12/06 05:05:39;;;;;;;21.73;13.32;;;;;;;;;;5051798;28;20071;-58
2020/12/06 05:08:07;;;;;;;22.90;12.90;;;;;;;;;;5051641;28;20025;-58
2020/12/06 05:10:35;;;;;;;20.88;11.73;;;;;;;;;;5053263;28;20021;-57
2020/12/06 05:13:01;;;;;;;22.13;12.10;;;;;;;;;;5052386;28;20091;-55
2020/12/06 05:15:27;;;;;;;21.17;12.38;;;;;;;;;;5052596;28;20107;-56
2020/12/06 05:17:55;;;;;;;20.70;12.30;;;;;;;;;;5052976;28;20057;-58
2020/12/06 05:20:21;;;;;;;21.40;12.35;;;;;;;;;;5052636;28;20020;-55
2020/12/06 05:22:47;;;;;;;21.70;12.30;;;;;;;;;;5052773;28;20100;-57
2020/12/06 05:25:14;;;;;;;22.77;12.55;;;;;;;;;;5052287;28;20025;-56
2020/12/06 05:27:40;;;;;;;21.50;12.30;;;;;;;;;;5052688;28;20036;-57
2020/12/06 05:30:06;;;;;;;17.98;11.80;;;;;;;;;;5051291;28;20510;-56
2020/12/06 05:32:33;;;;;;;18.10;11.10;;;;;;;;;;5052582;28;20079;-58
2020/12/06 05:35:00;;;;;;;17.17;10.60;;;;;;;;;;5049598;28;20508;-53
2020/12/06 05:37:26;;;;;;;17.98;10.10;;;;;;;;;;5052000;28;20071;-57
2020/12/06 05:40:03;;;;;;;15.25;10.30;;;;;;;;;;5052473;28;20059;-57
2020/12/06 05:42:29;;;;;;;18.50;10.90;;;;;;;;;;5052363;28;20017;-55
2020/12/06 05:44:56;;;;;;;19.27;11.25;;;;;;;;;;5052337;28;20060;-56
2020/12/06 05:47:22;;;;;;;18.10;11.52;;;;;;;;;;5052165;28;20024;-54
2020/12/06 05:49:48;;;;;;;19.60;11.88;;;;;;;;;;5047493;28;20033;-57
2020/12/06 05:52:16;;;;;;;20.83;12.07;;;;;;;;;;5042956;28;20098;-57
2020/12/06 05:54:42;;;;;;;20.85;12.77;;;;;;;;;;5051755;28;20110;-56
2020/12/06 05:57:08;;;;;;;22.42;13.20;;;;;;;;;;5052197;28;20017;-56
2020/12/06 05:59:34;;;;;;;23.25;14.02;;;;;;;;;;5052045;28;20033;-58
2020/12/06 06:02:00;;;;;;;23.15;13.30;;;;;;;;;;5051992;28;20555;-56
2020/12/06 06:04:27;;;;;;;22.52;12.95;;;;;;;;;;5049731;28;20065;-57
2020/12/06 06:06:54;;;;;;;20.70;13.20;;;;;;;;;;5051371;28;20017;-57
2020/12/06 06:09:20;;;;;;;21.52;13.55;;;;;;;;;;5052032;28;20055;-57
2020/12/06 06:11:55;;;;;;;24.40;13.05;;;;;;;;;;5051869;28;20028;-56
2020/12/06 06:14:23;;;;;;;21.65;13.20;;;;;;;;;;5051711;28;20056;-58
2020/12/06 06:16:49;;;;;;;23.40;14.00;;;;;;;;;;5051836;28;20029;-57
2020/12/06 06:19:15;;;;;;;23.33;13.65;;;;;;;;;;5043551;28;20038;-57
2020/12/06 06:21:43;;;;;;;22.25;13.05;;;;;;;;;;5051184;28;20025;-57
2020/12/06 06:24:10;;;;;;;22.27;13.63;;;;;;;;;;5047878;28;20040;-57
2020/12/06 06:26:37;;;;;;;21.08;12.23;;;;;;;;;;5037705;28;20096;-56
2020/12/06 06:29:10;;;;;;;20.27;12.43;;;;;;;;;;5051612;28;20043;-57
2020/12/06 06:31:36;;;;;;;22.42;13.32;;;;;;;;;;5031599;28;20026;-57
2020/12/06 06:34:05;;;;;;;23.48;13.63;;;;;;;;;;5031549;28;20044;-56
2020/12/06 06:36:31;;;;;;;23.65;13.70;;;;;;;;;;5052133;28;20395;-58
2020/12/06 06:38:58;;;;;;;23.52;13.55;;;;;;;;;;5055622;28;20025;-57
2020/12/06 06:41:25;;;;;;;23.60;13.98;;;;;;;;;;5055390;28;20025;-57
2020/12/06 06:43:51;;;;;;;23.98;13.70;;;;;;;;;;5055418;28;20029;-58
2020/12/06 06:46:18;;;;;;;22.65;14.32;;;;;;;;;;5055064;28;20480;-57
2020/12/06 06:48:45;;;;;;;32.70;18.58;;;;;;;;;;5055327;28;20508;-56
2020/12/06 06:51:17;;;;;;;24.45;14.35;;;;;;;;;;5055247;28;20082;-50
2020/12/06 06:53:43;;;;;;;27.00;14.27;;;;;;;;;;5042912;28;20045;-53
2020/12/06 06:56:09;;;;;;;20.77;13.32;;;;;;;;;;5043253;28;20032;-55
2020/12/06 06:58:36;;;;;;;23.27;14.20;;;;;;;;;;5034885;28;20479;-53
2020/12/06 07:01:15;;;;;;;21.80;12.82;;;;;;;;;;5034809;28;20488;-51
2020/12/06 07:03:51;;;;;;;19.88;12.68;;;;;;;;;;5034932;28;20420;-50
2020/12/06 07:06:36;;;;;;;19.90;12.45;;;;;;;;;;5034789;28;20026;-55
2020/12/06 07:09:02;;;;;;;21.15;13.13;;;;;;;;;;5034471;28;20029;-53
2020/12/06 07:11:29;;;;;;;20.35;13.25;;;;;;;;;;5034382;28;20025;-54
2020/12/06 07:13:55;;;;;;;20.98;13.43;;;;;;;;;;5036675;28;20025;-55
2020/12/06 07:16:21;;;;;;;21.70;13.63;;;;;;;;;;5034737;28;20396;-55
2020/12/06 07:18:47;;;;;;;19.52;12.85;;;;;;;;;;5035029;28;20017;-55
2020/12/06 07:21:14;;;;;;;21.98;13.95;;;;;;;;;;5038596;28;20465;-55
2020/12/06 07:23:40;;;;;;;22.38;13.40;;;;;;;;;;5034829;28;20025;-55
2020/12/06 07:26:06;;;;;;;23.55;13.75;;;;;;;;;;5038954;28;20041;-55
2020/12/06 07:28:32;;;;;;;25.15;14.38;;;;;;;;;;5043132;28;20040;-56
2020/12/06 07:30:58;;;;;;;22.23;13.05;;;;;;;;;;5054645;28;20156;-54
2020/12/06 07:33:24;;;;;;;19.60;13.05;;;;;;;;;;5054759;28;20024;-53
2020/12/06 07:35:51;;;;;;;21.65;13.40;;;;;;;;;;5054237;28;20035;-53
2020/12/06 07:38:17;;;;;;;26.88;14.63;;;;;;;;;;5050242;28;20021;-56
2020/12/06 07:40:43;;;;;;;22.13;13.93;;;;;;;;;;5054397;28;20028;-56
2020/12/06 07:43:12;;;;;;;30.67;16.73;;;;;;;;;;5054222;28;20021;-57
2020/12/06 07:45:39;;;;;;;25.40;16.27;;;;;;;;;;5054416;28;20123;-58
2020/12/06 07:48:06;;;;;;;31.55;20.85;;;;;;;;;;5036458;28;20465;-57
2020/12/06 07:50:32;;;;;;;28.88;17.92;;;;;;;;;;5044797;28;20033;-58
2020/12/06 07:53:03;;;;;;;27.67;17.35;;;;;;;;;;5053982;28;20064;-58
2020/12/06 07:55:30;;;;;;;42.47;27.77;;;;;;;;;;5054394;28;20037;-59
2020/12/06 07:58:01;;;;;;;42.60;24.80;;;;;;;;;;5054031;28;20029;-59
2020/12/06 08:00:37;;;;;;;40.35;27.05;;;;;;;;;;5054142;28;20028;-58
2020/12/06 08:03:04;;;;;;;27.88;18.08;;;;;;;;;;5053973;28;20043;-57
2020/12/06 08:05:31;;;;;;;36.97;25.40;;;;;;;;;;5054029;28;20047;-58
2020/12/06 08:08:02;;;;;;;33.30;22.05;;;;;;;;;;5046018;28;20474;-57
2020/12/06 08:10:28;;;;;;;41.22;25.63;;;;;;;;;;5040417;28;20093;-58
2020/12/06 08:12:55;;;;;;;27.38;17.30;;;;;;;;;;5053843;28;20033;-58
2020/12/06 08:15:25;;;;;;;25.30;15.65;;;;;;;;;;5053815;28;20463;-58
2020/12/06 08:17:51;;;;;;;33.35;21.83;;;;;;;;;;5053884;28;20056;-58
2020/12/06 08:20:21;;;;;;;17.85;12.23;;;;;;;;;;5053793;28;20473;-58
2020/12/06 08:22:50;;;;;;;19.98;13.75;;;;;;;;;;5049219;28;20048;-58
2020/12/06 08:25:19;;;;;;;17.98;12.77;;;;;;;;;;5050126;28;20095;-58
2020/12/06 08:27:46;;;;;;;19.77;13.30;;;;;;;;;;5048886;28;20053;-58
2020/12/06 08:30:16;;;;;;;24.90;14.52;;;;;;;;;;5044586;28;20025;-58
2020/12/06 08:32:49;;;;;;;23.05;14.38;;;;;;;;;;5047266;28;20021;-58
2020/12/06 08:35:15;;;;;;;20.35;13.32;;;;;;;;;;5044257;28;20395;-59
2020/12/06 08:37:42;;;;;;;23.35;14.25;;;;;;;;;;5048143;28;20022;-59
2020/12/06 08:40:08;;;;;;;23.88;14.82;;;;;;;;;;5050029;28;20028;-58
2020/12/06 08:42:34;;;;;;;19.83;13.30;;;;;;;;;;5047922;28;20496;-58
2020/12/06 08:45:00;;;;;;;25.10;14.13;;;;;;;;;;5045440;28;20021;-58
2020/12/06 08:47:47;;;;;;;21.50;12.65;;;;;;;;;;5049508;28;20041;-58
2020/12/06 08:50:16;;;;;;;22.80;13.00;;;;;;;;;;5051052;28;20484;-58
2020/12/06 08:52:43;;;;;;;19.48;12.52;;;;;;;;;;5033256;28;20380;-58
2020/12/06 08:55:28;;;;;;;19.90;12.98;;;;;;;;;;5052626;28;20032;-58
2020/12/06 08:57:55;;;;;;;20.20;13.30;;;;;;;;;;5052704;28;20029;-56
2020/12/06 09:00:21;;;;;;;19.05;12.88;;;;;;;;;;5052605;28;20025;-58
2020/12/06 09:02:47;;;;;;;21.42;14.00;;;;;;;;;;5052992;28;20538;-58
2020/12/06 09:05:13;;;;;;;16.80;11.57;;;;;;;;;;5052963;28;20036;-58
2020/12/06 09:07:42;;;;;;;20.15;13.90;;;;;;;;;;5053095;28;20476;-58
2020/12/06 09:10:09;;;;;;;17.45;11.77;;;;;;;;;;5052605;28;20390;-60
2020/12/06 09:12:36;;;;;;;16.05;12.30;;;;;;;;;;5053022;28;20021;-58
2020/12/06 09:15:03;;;;;;;20.63;13.90;;;;;;;;;;5038174;28;20504;-59
2020/12/06 09:17:29;;;;;;;17.85;13.23;;;;;;;;;;5051779;28;20020;-58
2020/12/06 09:19:55;;;;;;;17.05;12.50;;;;;;;;;;5052423;28;20545;-59
2020/12/06 09:22:21;;;;;;;18.70;12.70;;;;;;;;;;5052160;28;20043;-58
2020/12/06 09:24:47;;;;;;;18.15;13.45;;;;;;;;;;5052371;28;20037;-59
2020/12/06 09:27:13;;;;;;;22.08;17.27;;;;;;;;;;5052038;28;20491;-59
2020/12/06 09:29:39;;;;;;;21.92;17.05;;;;;;;;;;5039331;28;20376;-59
2020/12/06 09:32:05;;;;;;;18.35;14.40;;;;;;;;;;5052305;28;20422;-60
2020/12/06 09:34:31;;;;;;;18.15;12.27;;;;;;;;;;5052112;28;20388;-60
2020/12/06 09:36:57;;;;;;;15.52;10.85;;;;;;;;;;5052506;28;20024;-59
2020/12/06 09:39:23;;;;;;;12.82;10.27;;;;;;;;;;5052201;28;20036;-60
2020/12/06 09:41:49;;;;;;;15.73;12.60;;;;;;;;;;5052417;28;20468;-60
2020/12/06 09:44:15;;;;;;;15.85;12.07;;;;;;;;;;5052097;28;20110;-59
2020/12/06 09:46:41;;;;;;;15.75;12.02;;;;;;;;;;5052265;28;20372;-60
2020/12/06 09:49:07;;;;;;;17.55;12.68;;;;;;;;;;5052216;28;20056;-60
2020/12/06 09:51:33;;;;;;;15.65;12.35;;;;;;;;;;5051905;28;20086;-59
2020/12/06 09:54:01;;;;;;;15.63;10.65;;;;;;;;;;5051872;28;20088;-60
2020/12/06 09:56:30;;;;;;;14.90;10.50;;;;;;;;;;5051829;28;20478;-60
2020/12/06 09:58:57;;;;;;;14.88;11.93;;;;;;;;;;5052112;28;20069;-59
2020/12/06 10:01:26;;;;;;;18.50;14.38;;;;;;;;;;5051910;28;20061;-60
2020/12/06 10:03:52;;;;;;;15.90;11.05;;;;;;;;;;5051734;28;20029;-60
2020/12/06 10:06:25;;;;;;;12.15;9.43;;;;;;;;;;5051870;28;20025;-61
2020/12/06 10:08:51;;;;;;;11.10;9.25;;;;;;;;;;5052164;28;20017;-60
2020/12/06 10:11:18;;;;;;;12.57;10.50;;;;;;;;;;5055199;28;20025;-60
2020/12/06 10:13:44;;;;;;;17.20;10.65;;;;;;;;;;5055809;28;20025;-61
2020/12/06 10:16:10;;;;;;;10.75;8.10;;;;;;;;;;5055853;28;20028;-59
2020/12/06 10:18:36;;;;;;;10.48;8.45;;;;;;;;;;5055816;28;20472;-60
2020/12/06 10:21:02;;;;;;;10.55;8.43;;;;;;;;;;5056013;28;20127;-60
2020/12/06 10:23:28;;;;;;;12.57;8.20;;;;;;;;;;5055812;28;20055;-60
2020/12/06 10:25:54;;;;;;;15.88;10.60;;;;;;;;;;5055886;28;20789;-60
2020/12/06 10:28:20;;;;;;;13.85;9.55;;;;;;;;;;5055480;28;20035;-60
2020/12/06 10:30:46;;;;;;;16.33;11.32;;;;;;;;;;5055583;28;20081;-60
2020/12/06 10:33:12;;;;;;;12.82;9.70;;;;;;;;;;5055587;28;20396;-60
2020/12/06 10:35:40;;;;;;;10.05;8.02;;;;;;;;;;5055453;28;20488;-60
2020/12/06 10:38:06;;;;;;;10.48;7.47;;;;;;;;;;5055530;28;20484;-61
2020/12/06 10:40:32;;;;;;;14.38;9.88;;;;;;;;;;5055393;28;20028;-60
2020/12/06 10:42:58;;;;;;;11.02;8.35;;;;;;;;;;5055618;28;20036;-60
2020/12/06 10:45:24;;;;;;;10.57;7.20;;;;;;;;;;5055765;28;20480;-60
2020/12/06 10:47:50;;;;;;;9.75;7.20;;;;;;;;;;5055172;28;20104;-60
2020/12/06 10:50:16;;;;;;;11.30;7.85;;;;;;;;;;5055651;28;20087;-60
2020/12/06 10:52:42;;;;;;;13.63;9.00;;;;;;;;;;5055151;28;20032;-60
2020/12/06 10:55:08;;;;;;;11.55;7.45;;;;;;;;;;5055501;28;20116;-60
2020/12/06 10:57:34;;;;;;;12.65;9.32;;;;;;;;;;5055552;28;20056;-60
2020/12/06 11:00:00;;;;;;;17.02;12.88;;;;;;;;;;5055366;28;20033;-61
2020/12/06 11:02:26;;;;;;;17.92;11.40;;;;;;;;;;5055069;28;20079;-60
2020/12/06 11:04:52;;;;;;;22.40;19.65;;;;;;;;;;5054840;28;20091;-58
2020/12/06 11:07:18;;;;;;;13.48;10.13;;;;;;;;;;5054884;28;20021;-60
2020/12/06 11:09:44;;;;;;;13.73;11.25;;;;;;;;;;5055094;28;20025;-58
2020/12/06 11:12:10;;;;;;;17.77;12.00;;;;;;;;;;5050661;28;20021;-60
2020/12/06 11:14:36;;;;;;;14.13;11.40;;;;;;;;;;5034490;28;20029;-56
2020/12/06 11:17:02;;;;;;;15.25;11.98;;;;;;;;;;5034389;28;20083;-59
2020/12/06 11:19:29;;;;;;;15.50;12.13;;;;;;;;;;5034324;28;20018;-55
2020/12/06 11:21:55;;;;;;;14.02;10.73;;;;;;;;;;5033144;28;20104;-56
2020/12/06 11:24:21;;;;;;;17.23;12.23;;;;;;;;;;5035389;28;20018;-60
2020/12/06 11:26:47;;;;;;;16.65;11.95;;;;;;;;;;5034704;28;20389;-60
2020/12/06 11:29:13;;;;;;;16.58;12.73;;;;;;;;;;5035182;28;20387;-60
2020/12/06 11:31:39;;;;;;;18.08;14.05;;;;;;;;;;5034748;28;20465;-60
2020/12/06 11:34:06;;;;;;;23.80;17.92;;;;;;;;;;5039805;28;20036;-60
2020/12/06 11:36:32;;;;;;;19.10;14.02;;;;;;;;;;5043331;28;20040;-60
2020/12/06 11:38:58;;;;;;;17.63;12.10;;;;;;;;;;5040176;28;20029;-59
2020/12/06 11:41:27;;;;;;;23.35;17.00;;;;;;;;;;5036987;28;20017;-61
2020/12/06 11:43:54;;;;;;;25.05;16.42;;;;;;;;;;5039108;28;20453;-60
2020/12/06 11:46:20;;;;;;;22.45;16.08;;;;;;;;;;5034144;28;20021;-58
2020/12/06 11:48:46;;;;;;;16.40;12.15;;;;;;;;;;5033719;28;20357;-61
2020/12/06 11:51:12;;;;;;;30.60;21.75;;;;;;;;;;5033690;28;20024;-60
2020/12/06 11:53:38;;;;;;;19.73;14.48;;;;;;;;;;5033163;28;20140;-59
2020/12/06 11:56:04;;;;;;;21.02;14.63;;;;;;;;;;5033609;28;20047;-56
2020/12/06 11:58:30;;;;;;;18.42;14.02;;;;;;;;;;5033408;28;20017;-56
2020/12/06 12:00:56;;;;;;;23.58;17.25;;;;;;;;;;5033324;28;20029;-58
2020/12/06 12:03:22;;;;;;;18.35;13.50;;;;;;;;;;5032812;28;20075;-52
2020/12/06 12:05:48;;;;;;;18.88;10.98;;;;;;;;;;5033092;28;20113;-58
2020/12/06 12:08:14;;;;;;;14.85;9.55;;;;;;;;;;5033046;28;20032;-53
2020/12/06 12:10:40;;;;;;;25.58;17.35;;;;;;;;;;5033087;28;20033;-55
2020/12/06 12:13:06;;;;;;;24.65;15.13;;;;;;;;;;5033042;28;20071;-58
2020/12/06 12:15:32;;;;;;;11.25;7.55;;;;;;;;;;5037164;28;20041;-55
2020/12/06 12:17:58;;;;;;;25.50;18.13;;;;;;;;;;5033196;28;20025;-60
2020/12/06 12:20:24;;;;;;;29.17;18.65;;;;;;;;;;5033246;28;20029;-60
2020/12/06 12:22:51;;;;;;;12.57;8.70;;;;;;;;;;5032428;28;20052;-53
2020/12/06 12:25:17;;;;;;;12.13;9.10;;;;;;;;;;5032151;28;20018;-58
2020/12/06 12:27:43;;;;;;;12.27;7.93;;;;;;;;;;5034775;28;20471;-57
2020/12/06 12:30:10;;;;;;;9.90;6.60;;;;;;;;;;5035957;28;20026;-57
2020/12/06 12:32:36;;;;;;;10.43;6.90;;;;;;;;;;5032804;28;20055;-61
2020/12/06 12:35:02;;;;;;;10.25;6.90;;;;;;;;;;5040586;28;20051;-55
2020/12/06 12:37:28;;;;;;;13.23;8.23;;;;;;;;;;5038725;28;20092;-61
2020/12/06 12:39:54;;;;;;;19.77;12.82;;;;;;;;;;5032394;28;20060;-57
2020/12/06 12:42:20;;;;;;;19.60;12.20;;;;;;;;;;5032146;28;20484;-58
2020/12/06 12:44:46;;;;;;;14.80;10.20;;;;;;;;;;5032113;28;20048;-56
2020/12/06 12:47:12;;;;;;;16.77;11.10;;;;;;;;;;5033687;28;20053;-58
2020/12/06 12:49:38;;;;;;;19.88;12.30;;;;;;;;;;5032550;28;20030;-57
2020/12/06 12:52:05;;;;;;;17.15;11.32;;;;;;;;;;5032830;28;20425;-58
2020/12/06 12:54:32;;;;;;;15.23;10.98;;;;;;;;;;5032683;28;20212;-59
2020/12/06 12:56:58;;;;;;;17.55;10.90;;;;;;;;;;5033013;28;20021;-61
2020/12/06 12:59:25;;;;;;;14.70;10.27;;;;;;;;;;5042884;28;20032;-58
2020/12/06 13:01:51;;;;;;;14.02;9.02;;;;;;;;;;5033418;28;20053;-60
2020/12/06 13:04:17;;;;;;;14.13;9.00;;;;;;;;;;5032778;28;20034;-57
2020/12/06 13:06:43;;;;;;;11.80;7.90;;;;;;;;;;5043306;28;20025;-58
2020/12/06 13:09:09;;;;;;;10.75;6.68;;;;;;;;;;5032828;28;20389;-59
2020/12/06 13:11:35;;;;;;;12.25;7.57;;;;;;;;;;5036900;28;20025;-57
2020/12/06 13:14:04;;;;;;;11.05;7.85;;;;;;;;;;5031924;28;20038;-58
2020/12/06 13:16:30;;;;;;;10.27;7.18;;;;;;;;;;5032048;28;20022;-56
2020/12/06 13:18:56;;;;;;;14.10;10.07;;;;;;;;;;5031885;28;20029;-56
2020/12/06 13:21:22;;;;;;;11.80;7.40;;;;;;;;;;5034499;28;20029;-60
2020/12/06 13:23:48;;;;;;;9.63;6.63;;;;;;;;;;5031580;28;20052;-59
2020/12/06 13:26:18;;;;;;;10.77;6.68;;;;;;;;;;5032009;28;20021;-59
2020/12/06 13:28:45;;;;;;;11.75;8.40;;;;;;;;;;5031816;28;20024;-59
2020/12/06 13:31:16;;;;;;;15.88;9.95;;;;;;;;;;5031998;28;20017;-57
2020/12/06 13:33:42;;;;;;;16.38;11.50;;;;;;;;;;5033612;28;20041;-59
2020/12/06 13:36:08;;;;;;;26.15;18.90;;;;;;;;;;5046026;28;20039;-58
2020/12/06 13:38:34;;;;;;;14.07;10.13;;;;;;;;;;5032866;28;20059;-57
2020/12/06 13:41:00;;;;;;;15.38;9.25;;;;;;;;;;5030143;28;20499;-57
2020/12/06 13:43:26;;;;;;;10.15;6.30;;;;;;;;;;5033852;28;20029;-56
2020/12/06 13:45:52;;;;;;;11.27;8.32;;;;;;;;;;5029908;28;20029;-60
2020/12/06 13:48:19;;;;;;;10.00;7.00;;;;;;;;;;5031808;28;20033;-60
2020/12/06 13:50:45;;;;;;;13.80;8.90;;;;;;;;;;5036671;28;20017;-56
2020/12/06 13:53:11;;;;;;;11.70;7.50;;;;;;;;;;5030547;28;20052;-59
2020/12/06 13:55:38;;;;;;;9.07;6.80;;;;;;;;;;5030250;28;20140;-58
2020/12/06 13:58:04;;;;;;;9.30;6.28;;;;;;;;;;5030082;28;20029;-57
2020/12/06 14:00:30;;;;;;;18.58;11.10;;;;;;;;;;5030089;28;20466;-56
2020/12/06 14:02:56;;;;;;;12.75;9.52;;;;;;;;;;5030119;28;20029;-54
2020/12/06 14:05:22;;;;;;;18.67;12.05;;;;;;;;;;5030838;28;20053;-57
2020/12/06 14:07:48;;;;;;;9.60;5.65;;;;;;;;;;5033037;28;20087;-57
2020/12/06 14:10:14;;;;;;;12.05;7.05;;;;;;;;;;5033407;28;20108;-60
2020/12/06 14:12:40;;;;;;;18.13;10.10;;;;;;;;;;5031496;28;20021;-54
2020/12/06 14:15:07;;;;;;;17.13;12.27;;;;;;;;;;5043056;28;20037;-55